Time;durP1;ratioP1;P1;durP2;ratioP2;P2;SDS_P1;SDS_P2;PMS_P1;PMS_P2;Temp;Humidity;BMP_temperature;BMP_pressure;BME280_temperature;BME280_humidity;BME280_pressure;Samples;Min_cycle;Max_cycle;Signal;HPM_P1;HPM_P2
2023/04/16 11:48:24;;;;;;;5.50;3.40;;;;;;;;;;5090370;27;20402;-67
2023/04/16 11:50:56;;;;;;;4.78;3.47;;;;;;;;;;5066056;28;20048;-68
2023/04/16 11:53:21;;;;;;;6.38;4.70;;;;;;;;;;5074893;28;20627;-67
2023/04/16 11:55:47;;;;;;;5.93;4.03;;;;;;;;;;5081057;28;20045;-68
2023/04/16 11:58:12;;;;;;;4.97;3.85;;;;;;;;;;5072729;28;20015;-67
2023/04/16 12:00:37;;;;;;;5.25;3.70;;;;;;;;;;5070595;28;20028;-67
2023/04/16 12:03:03;;;;;;;5.50;4.03;;;;;;;;;;5086829;28;20408;-67
2023/04/16 12:05:37;;;;;;;6.00;3.85;;;;;;;;;;5101820;28;20024;-68
2023/04/16 12:08:12;;;;;;;6.43;4.13;;;;;;;;;;5089195;28;20020;-68
2023/04/16 12:10:53;;;;;;;6.75;4.90;;;;;;;;;;5052471;28;20040;-68
2023/04/16 12:13:19;;;;;;;29.35;6.03;;;;;;;;;;5069592;28;20031;-68
2023/04/16 12:15:47;;;;;;;5.97;4.30;;;;;;;;;;5092587;28;20028;-68
2023/04/16 12:18:14;;;;;;;12.00;4.95;;;;;;;;;;5092165;28;20695;-69
2023/04/16 12:20:43;;;;;;;6.68;4.80;;;;;;;;;;5055506;28;20028;-68
2023/04/16 12:23:08;;;;;;;6.22;4.78;;;;;;;;;;5086174;28;20148;-68
2023/04/16 12:25:34;;;;;;;6.03;4.78;;;;;;;;;;5087837;28;20020;-68
2023/04/16 12:28:00;;;;;;;6.82;4.75;;;;;;;;;;5078559;28;20377;-68
2023/04/16 12:30:26;;;;;;;6.18;4.55;;;;;;;;;;5076384;28;20078;-67
2023/04/16 12:32:53;;;;;;;7.30;4.93;;;;;;;;;;5065837;28;20028;-67
2023/04/16 12:35:31;;;;;;;11.45;6.20;;;;;;;;;;5042313;28;20028;-68
2023/04/16 12:37:56;;;;;;;8.30;5.55;;;;;;;;;;5073446;28;20054;-67
2023/04/16 12:40:22;;;;;;;10.30;6.35;;;;;;;;;;5075135;28;20027;-68
2023/04/16 12:42:47;;;;;;;9.18;5.97;;;;;;;;;;5059368;28;20389;-68
2023/04/16 12:45:13;;;;;;;9.23;6.38;;;;;;;;;;5043740;28;20036;-68
2023/04/16 12:47:38;;;;;;;8.98;6.32;;;;;;;;;;5086162;28;20449;-67
2023/04/16 12:50:04;;;;;;;10.50;6.90;;;;;;;;;;5056155;28;20124;-68
2023/04/16 12:52:30;;;;;;;10.32;6.57;;;;;;;;;;5094515;28;20015;-68
2023/04/16 12:54:55;;;;;;;9.65;6.43;;;;;;;;;;5095477;28;20064;-68
2023/04/16 12:57:22;;;;;;;8.82;6.78;;;;;;;;;;5060984;28;20019;-68
2023/04/16 12:59:48;;;;;;;9.52;6.53;;;;;;;;;;5086618;28;20023;-67
2023/04/16 13:02:13;;;;;;;9.32;6.22;;;;;;;;;;5038401;28;20049;-67
2023/04/16 13:04:38;;;;;;;9.15;5.82;;;;;;;;;;5015946;28;20126;-68
2023/04/16 13:07:04;;;;;;;9.50;6.30;;;;;;;;;;5031723;28;20034;-66
2023/04/16 13:09:29;;;;;;;8.45;6.65;;;;;;;;;;5020586;28;20033;-67
2023/04/16 13:11:55;;;;;;;8.55;5.85;;;;;;;;;;5024521;28;20025;-68
2023/04/16 13:14:20;;;;;;;8.38;6.25;;;;;;;;;;5026772;28;20486;-67
2023/04/16 13:16:46;;;;;;;8.50;5.90;;;;;;;;;;5026390;28;20084;-68
2023/04/16 13:19:11;;;;;;;9.82;6.85;;;;;;;;;;5022094;28;20029;-67
2023/04/16 13:21:37;;;;;;;7.05;5.10;;;;;;;;;;5019121;28;20379;-68
2023/04/16 13:24:02;;;;;;;7.07;5.13;;;;;;;;;;5023068;28;20052;-66
2023/04/16 13:26:28;;;;;;;9.05;5.70;;;;;;;;;;5006407;28;20026;-68
2023/04/16 13:28:53;;;;;;;8.05;5.32;;;;;;;;;;5018732;28;20031;-67
2023/04/16 13:31:20;;;;;;;9.90;6.25;;;;;;;;;;5019295;28;80985;-67
2023/04/16 13:33:46;;;;;;;7.82;5.43;;;;;;;;;;5019178;28;20017;-67
2023/04/16 13:36:12;;;;;;;10.82;5.78;;;;;;;;;;5023172;28;20393;-68
2023/04/16 13:38:38;;;;;;;10.00;6.45;;;;;;;;;;5014030;28;20044;-68
2023/04/16 13:41:04;;;;;;;9.00;5.75;;;;;;;;;;5019152;28;20033;-68
2023/04/16 13:43:30;;;;;;;10.23;6.90;;;;;;;;;;5018407;28;20537;-67
2023/04/16 13:45:56;;;;;;;8.60;5.85;;;;;;;;;;5020717;28;20029;-67
2023/04/16 13:48:21;;;;;;;8.10;5.85;;;;;;;;;;5020608;28;20075;-68
2023/04/16 13:50:46;;;;;;;10.43;6.50;;;;;;;;;;5021046;28;20040;-67
2023/04/16 13:53:12;;;;;;;11.05;6.55;;;;;;;;;;5019342;28;20497;-67
2023/04/16 13:55:37;;;;;;;10.30;6.25;;;;;;;;;;5019224;28;20029;-67
2023/04/16 13:58:03;;;;;;;10.55;6.63;;;;;;;;;;5025154;28;20029;-67
2023/04/16 14:00:28;;;;;;;10.65;6.43;;;;;;;;;;5026685;28;20025;-67
2023/04/16 14:02:53;;;;;;;11.57;7.47;;;;;;;;;;5026152;28;20381;-67
2023/04/16 14:05:19;;;;;;;9.25;6.68;;;;;;;;;;5024794;28;20071;-67
2023/04/16 14:07:45;;;;;;;9.90;6.63;;;;;;;;;;5022731;28;20021;-67
2023/04/16 14:10:10;;;;;;;15.40;6.53;;;;;;;;;;5020967;28;20075;-67
2023/04/16 14:12:37;;;;;;;12.25;7.43;;;;;;;;;;5024802;28;20642;-68
2023/04/16 14:15:08;;;;;;;10.18;6.78;;;;;;;;;;5021843;28;20406;-67
2023/04/16 14:17:34;;;;;;;10.55;7.57;;;;;;;;;;5016393;28;20057;-67
2023/04/16 14:19:59;;;;;;;24.02;9.00;;;;;;;;;;5014753;28;20021;-67
2023/04/16 14:22:25;;;;;;;11.23;7.38;;;;;;;;;;5017363;28;20023;-68
2023/04/16 14:24:50;;;;;;;10.73;6.82;;;;;;;;;;5019347;28;20024;-67
2023/04/16 14:27:16;;;;;;;9.73;6.18;;;;;;;;;;5022677;28;20544;-67
2023/04/16 14:29:42;;;;;;;10.25;6.65;;;;;;;;;;5022729;28;20704;-68
2023/04/16 14:32:07;;;;;;;9.13;6.38;;;;;;;;;;5025739;28;20087;-67
2023/04/16 14:34:32;;;;;;;11.30;7.82;;;;;;;;;;5023265;28;20017;-67
2023/04/16 14:36:58;;;;;;;9.88;6.55;;;;;;;;;;5021768;28;20037;-68
2023/04/16 14:39:24;;;;;;;10.07;7.07;;;;;;;;;;5025348;28;20125;-67
2023/04/16 14:41:49;;;;;;;10.35;7.28;;;;;;;;;;5019916;28;20029;-67
2023/04/16 14:44:15;;;;;;;10.90;7.57;;;;;;;;;;5021441;28;20052;-68
2023/04/16 14:46:40;;;;;;;8.70;6.65;;;;;;;;;;5013038;28;20052;-67
2023/04/16 14:49:06;;;;;;;13.05;7.90;;;;;;;;;;5024858;28;20037;-68
2023/04/16 14:51:31;;;;;;;9.98;7.20;;;;;;;;;;5026843;28;20035;-68
2023/04/16 14:53:56;;;;;;;9.40;6.57;;;;;;;;;;5030482;28;20028;-67
2023/04/16 14:56:22;;;;;;;11.90;6.95;;;;;;;;;;5025662;28;20057;-67
2023/04/16 14:58:47;;;;;;;10.63;7.20;;;;;;;;;;5017329;28;20119;-67
2023/04/16 15:01:13;;;;;;;10.57;7.35;;;;;;;;;;5019838;28;20036;-68
2023/04/16 15:03:40;;;;;;;11.90;7.70;;;;;;;;;;5015078;28;20022;-68
2023/04/16 15:06:06;;;;;;;9.93;6.93;;;;;;;;;;5017831;28;20124;-68
2023/04/16 15:08:31;;;;;;;10.98;7.35;;;;;;;;;;5018236;28;20109;-67
2023/04/16 15:10:56;;;;;;;11.93;6.82;;;;;;;;;;5016435;28;20028;-67
2023/04/16 15:13:22;;;;;;;12.00;7.40;;;;;;;;;;5022712;28;20458;-68
2023/04/16 15:15:47;;;;;;;11.15;7.25;;;;;;;;;;5022774;28;20033;-68
2023/04/16 15:18:13;;;;;;;12.27;7.70;;;;;;;;;;5027187;28;20029;-69
2023/04/16 15:20:39;;;;;;;13.15;8.32;;;;;;;;;;5018642;28;20049;-69
2023/04/16 15:23:04;;;;;;;12.63;7.95;;;;;;;;;;5008550;28;20029;-70
2023/04/16 15:25:30;;;;;;;14.13;8.68;;;;;;;;;;5021536;28;20019;-69
2023/04/16 15:27:55;;;;;;;10.98;7.40;;;;;;;;;;5021155;28;20467;-69
2023/04/16 15:30:20;;;;;;;12.18;8.10;;;;;;;;;;5020932;28;20025;-69
2023/04/16 15:32:46;;;;;;;14.50;7.97;;;;;;;;;;5019852;28;20029;-70
2023/04/16 15:35:12;;;;;;;13.55;7.90;;;;;;;;;;5021488;28;20033;-69
2023/04/16 15:37:38;;;;;;;12.15;7.60;;;;;;;;;;5026023;28;20036;-69
2023/04/16 15:40:06;;;;;;;15.10;7.72;;;;;;;;;;5021367;28;20419;-70
2023/04/16 15:42:32;;;;;;;12.05;7.68;;;;;;;;;;5021369;28;20108;-69
2023/04/16 15:44:57;;;;;;;14.35;7.18;;;;;;;;;;5026278;28;20112;-69
2023/04/16 15:47:23;;;;;;;12.75;7.97;;;;;;;;;;5019009;28;20038;-69
2023/04/16 15:49:48;;;;;;;10.15;7.63;;;;;;;;;;5023465;28;20025;-70
2023/04/16 15:52:14;;;;;;;10.23;6.88;;;;;;;;;;5024669;28;20068;-69
2023/04/16 15:54:40;;;;;;;12.95;8.32;;;;;;;;;;5027696;28;20021;-69
2023/04/16 15:57:05;;;;;;;12.60;8.38;;;;;;;;;;5027701;28;20026;-69
2023/04/16 15:59:31;;;;;;;11.60;7.38;;;;;;;;;;5024128;28;20021;-69
2023/04/16 16:01:57;;;;;;;11.90;7.75;;;;;;;;;;5023172;28;20029;-68
2023/04/16 16:04:24;;;;;;;13.32;8.20;;;;;;;;;;5023098;28;20104;-69
2023/04/16 16:06:50;;;;;;;12.70;7.82;;;;;;;;;;5021401;28;20053;-69
2023/04/16 16:09:16;;;;;;;14.75;8.13;;;;;;;;;;5022705;28;20071;-69
2023/04/16 16:11:41;;;;;;;12.40;8.13;;;;;;;;;;5025256;28;20510;-69
2023/04/16 16:14:07;;;;;;;12.98;8.25;;;;;;;;;;5003009;28;20056;-69
2023/04/16 16:16:33;;;;;;;12.43;7.93;;;;;;;;;;5015037;28;20701;-69
2023/04/16 16:18:59;;;;;;;12.77;8.10;;;;;;;;;;5015957;28;20499;-69
2023/04/16 16:21:25;;;;;;;11.77;7.78;;;;;;;;;;5020743;28;20057;-68
2023/04/16 16:23:50;;;;;;;9.68;6.88;;;;;;;;;;5018711;28;20021;-68
2023/04/16 16:26:16;;;;;;;12.80;7.28;;;;;;;;;;5013724;28;20553;-69
2023/04/16 16:28:43;;;;;;;15.40;8.25;;;;;;;;;;5017335;28;20049;-69
2023/04/16 16:31:10;;;;;;;13.10;8.07;;;;;;;;;;5020470;28;20076;-68
2023/04/16 16:33:36;;;;;;;11.48;7.53;;;;;;;;;;5020993;28;20025;-69
2023/04/16 16:36:01;;;;;;;12.13;7.97;;;;;;;;;;5019828;28;20021;-69
2023/04/16 16:38:27;;;;;;;11.80;8.10;;;;;;;;;;5012391;28;20022;-69
2023/04/16 16:40:52;;;;;;;11.23;7.88;;;;;;;;;;5019808;28;20486;-69
2023/04/16 16:43:17;;;;;;;10.63;7.90;;;;;;;;;;5019204;28;20029;-69
2023/04/16 16:45:43;;;;;;;12.05;7.97;;;;;;;;;;5018934;28;20025;-68
2023/04/16 16:48:08;;;;;;;11.50;8.00;;;;;;;;;;5017143;28;20098;-68
2023/04/16 16:50:34;;;;;;;9.95;7.60;;;;;;;;;;5026557;28;20856;-69
2023/04/16 16:52:59;;;;;;;11.07;7.35;;;;;;;;;;5023823;28;20041;-70
2023/04/16 16:55:25;;;;;;;9.85;7.20;;;;;;;;;;5025812;28;20735;-68
2023/04/16 16:57:50;;;;;;;12.07;8.50;;;;;;;;;;5018151;28;20044;-69
2023/04/16 17:00:18;;;;;;;11.43;7.40;;;;;;;;;;5018953;28;20140;-70
2023/04/16 17:02:45;;;;;;;11.55;7.28;;;;;;;;;;5020686;28;20022;-69
2023/04/16 17:05:11;;;;;;;12.82;8.93;;;;;;;;;;5018488;28;20041;-70
2023/04/16 17:07:37;;;;;;;11.98;7.82;;;;;;;;;;5015617;28;20021;-69
2023/04/16 17:10:04;;;;;;;12.73;7.82;;;;;;;;;;5021603;28;20490;-69
2023/04/16 17:12:29;;;;;;;10.90;8.00;;;;;;;;;;5015166;28;20064;-69
2023/04/16 17:14:55;;;;;;;11.43;8.15;;;;;;;;;;5016008;28;20687;-69
2023/04/16 17:17:20;;;;;;;11.68;7.97;;;;;;;;;;5018145;28;20052;-69
2023/04/16 17:19:46;;;;;;;12.60;9.00;;;;;;;;;;5018176;28;20037;-69
2023/04/16 17:22:11;;;;;;;11.70;8.25;;;;;;;;;;5019714;28;20669;-69
2023/04/16 17:24:37;;;;;;;11.52;7.47;;;;;;;;;;5015757;28;20799;-69
2023/04/16 17:27:03;;;;;;;13.85;8.93;;;;;;;;;;5025031;28;20025;-70
2023/04/16 17:29:28;;;;;;;14.15;8.85;;;;;;;;;;5027805;28;20077;-71
2023/04/16 17:31:54;;;;;;;13.07;8.75;;;;;;;;;;5022878;28;20564;-69
2023/04/16 17:34:20;;;;;;;13.18;8.70;;;;;;;;;;5023244;28;20051;-70
2023/04/16 17:36:46;;;;;;;12.38;7.75;;;;;;;;;;5021088;28;20494;-70
2023/04/16 17:39:11;;;;;;;12.38;8.07;;;;;;;;;;5022464;28;20029;-70
2023/04/16 17:41:37;;;;;;;12.65;9.07;;;;;;;;;;5027045;28;20040;-69
2023/04/16 17:44:02;;;;;;;12.18;7.57;;;;;;;;;;5019022;28;20582;-71
2023/04/16 17:46:28;;;;;;;12.57;7.97;;;;;;;;;;5020688;28;20045;-71
2023/04/16 17:48:53;;;;;;;12.18;8.10;;;;;;;;;;5024063;28;20104;-69
2023/04/16 17:51:18;;;;;;;12.35;8.00;;;;;;;;;;5018943;28;20029;-71
2023/04/16 17:53:44;;;;;;;11.80;8.30;;;;;;;;;;5022096;28;20018;-70
2023/04/16 17:56:10;;;;;;;11.95;7.72;;;;;;;;;;5033675;28;20021;-70
2023/04/16 17:58:35;;;;;;;13.60;8.85;;;;;;;;;;5025841;28;20030;-71
2023/04/16 18:01:02;;;;;;;21.63;15.10;;;;;;;;;;5026273;28;20899;-72
2023/04/16 18:03:27;;;;;;;14.70;9.43;;;;;;;;;;5027873;28;20060;-70
2023/04/16 18:05:53;;;;;;;14.30;8.75;;;;;;;;;;5022177;28;20029;-70
2023/04/16 18:08:18;;;;;;;13.20;9.07;;;;;;;;;;5024100;28;20021;-70
2023/04/16 18:10:43;;;;;;;15.88;9.88;;;;;;;;;;5021079;28;20478;-69
2023/04/16 18:13:09;;;;;;;15.57;9.48;;;;;;;;;;5026248;28;20235;-69
2023/04/16 18:15:38;;;;;;;20.40;13.02;;;;;;;;;;5022498;28;20026;-69
2023/04/16 18:18:04;;;;;;;17.25;10.80;;;;;;;;;;5016236;28;20038;-68
2023/04/16 18:20:30;;;;;;;16.48;10.10;;;;;;;;;;5021734;28;20025;-69
2023/04/16 18:22:55;;;;;;;15.90;10.25;;;;;;;;;;5020972;28;20428;-69
2023/04/16 18:25:21;;;;;;;14.60;9.65;;;;;;;;;;5019952;28;20029;-70
2023/04/16 18:27:46;;;;;;;18.38;10.45;;;;;;;;;;5023658;28;20105;-69
2023/04/16 18:30:12;;;;;;;15.82;10.40;;;;;;;;;;5018770;28;20033;-70
2023/04/16 18:32:38;;;;;;;14.43;9.75;;;;;;;;;;5015795;28;20042;-70
2023/04/16 18:35:05;;;;;;;17.20;11.00;;;;;;;;;;5014692;28;20044;-71
2023/04/16 18:37:30;;;;;;;15.80;10.00;;;;;;;;;;5017782;28;20037;-70
2023/04/16 18:39:56;;;;;;;17.48;11.38;;;;;;;;;;5028222;28;20029;-70
2023/04/16 18:42:22;;;;;;;16.42;11.02;;;;;;;;;;5027691;28;20029;-69
2023/04/16 18:44:51;;;;;;;16.50;10.73;;;;;;;;;;5025888;28;20113;-70
2023/04/16 18:47:17;;;;;;;15.85;10.68;;;;;;;;;;5005243;28;20108;-69
2023/04/16 18:49:42;;;;;;;19.90;11.70;;;;;;;;;;5019937;28;20461;-68
2023/04/16 18:52:08;;;;;;;16.95;10.50;;;;;;;;;;5005331;28;20037;-69
2023/04/16 18:54:33;;;;;;;18.23;11.07;;;;;;;;;;5024131;28;20025;-70
2023/04/16 18:56:58;;;;;;;19.48;12.10;;;;;;;;;;5026096;28;20048;-69
2023/04/16 18:59:24;;;;;;;16.38;10.10;;;;;;;;;;5026592;28;20478;-69
2023/04/16 19:01:50;;;;;;;19.58;12.25;;;;;;;;;;5030321;28;20044;-69
2023/04/16 19:04:16;;;;;;;17.27;11.50;;;;;;;;;;5021888;28;20037;-70
2023/04/16 19:06:41;;;;;;;19.38;11.80;;;;;;;;;;5022717;28;20014;-69
2023/04/16 19:09:06;;;;;;;20.95;11.95;;;;;;;;;;5022484;28;20108;-69
2023/04/16 19:11:32;;;;;;;17.30;10.93;;;;;;;;;;5021126;28;20017;-69
2023/04/16 19:14:00;;;;;;;22.02;13.00;;;;;;;;;;5022532;28;20056;-70
2023/04/16 19:16:26;;;;;;;16.83;10.57;;;;;;;;;;5018430;28;20609;-70
2023/04/16 19:18:51;;;;;;;21.55;12.55;;;;;;;;;;5016363;28;20120;-68
2023/04/16 19:21:17;;;;;;;17.70;11.75;;;;;;;;;;5021040;28;20671;-68
2023/04/16 19:23:42;;;;;;;19.23;13.55;;;;;;;;;;5016975;28;20076;-70
2023/04/16 19:26:08;;;;;;;18.20;13.13;;;;;;;;;;5026230;28;20159;-70
2023/04/16 19:28:33;;;;;;;21.42;13.32;;;;;;;;;;5034599;28;20100;-69
2023/04/16 19:30:58;;;;;;;19.58;13.10;;;;;;;;;;5031076;28;20029;-69
2023/04/16 19:33:24;;;;;;;20.65;12.57;;;;;;;;;;5022335;28;20071;-69
2023/04/16 19:35:49;;;;;;;19.95;13.00;;;;;;;;;;5029580;28;20466;-68
2023/04/16 19:38:14;;;;;;;19.60;13.40;;;;;;;;;;5029159;28;20573;-67
2023/04/16 19:40:45;;;;;;;21.50;13.45;;;;;;;;;;5026119;28;20059;-67
2023/04/16 19:43:10;;;;;;;21.50;13.70;;;;;;;;;;5017661;28;20030;-68
2023/04/16 19:45:45;;;;;;;19.55;13.30;;;;;;;;;;5019573;28;20027;-68
2023/04/16 19:48:10;;;;;;;20.88;14.40;;;;;;;;;;5020915;28;20021;-68
2023/04/16 19:50:41;;;;;;;22.73;14.88;;;;;;;;;;5017679;28;20187;-68
2023/04/16 19:53:07;;;;;;;20.73;13.40;;;;;;;;;;5018242;28;20025;-68
2023/04/16 19:55:32;;;;;;;18.83;12.75;;;;;;;;;;5018154;28;20534;-68
2023/04/16 19:58:04;;;;;;;21.42;14.20;;;;;;;;;;5021027;28;20088;-68
2023/04/16 20:00:30;;;;;;;20.65;14.02;;;;;;;;;;5037109;28;20029;-68
2023/04/16 20:02:55;;;;;;;20.58;13.90;;;;;;;;;;5032609;28;20044;-69
2023/04/16 20:05:21;;;;;;;18.70;14.00;;;;;;;;;;5033150;28;20035;-68
2023/04/16 20:07:46;;;;;;;19.27;13.30;;;;;;;;;;5029400;28;20042;-68
2023/04/16 20:10:11;;;;;;;21.60;13.88;;;;;;;;;;4873659;28;20050;-68
2023/04/16 20:12:37;;;;;;;19.60;13.20;;;;;;;;;;5024172;28;20372;-67
2023/04/16 20:15:03;;;;;;;18.38;12.50;;;;;;;;;;5049007;28;20539;-68
2023/04/16 20:17:28;;;;;;;19.20;11.80;;;;;;;;;;5048281;28;20471;-68
2023/04/16 20:19:59;;;;;;;17.73;11.50;;;;;;;;;;5060629;28;20116;-68
2023/04/16 20:22:26;;;;;;;17.25;12.98;;;;;;;;;;5048212;28;20020;-68
2023/04/16 20:24:53;;;;;;;19.38;13.45;;;;;;;;;;5050682;28;20029;-68
2023/04/16 20:27:20;;;;;;;16.63;12.50;;;;;;;;;;5047171;28;20067;-68
2023/04/16 20:29:45;;;;;;;17.92;12.27;;;;;;;;;;5057444;28;20031;-68
2023/04/16 20:32:11;;;;;;;18.27;12.75;;;;;;;;;;5058846;28;20032;-68
2023/04/16 20:34:36;;;;;;;17.13;11.63;;;;;;;;;;5042346;28;20052;-68
2023/04/16 20:37:03;;;;;;;15.60;11.38;;;;;;;;;;5033171;28;20063;-68
2023/04/16 20:39:32;;;;;;;17.15;11.45;;;;;;;;;;5051555;28;20084;-66
2023/04/16 20:41:59;;;;;;;15.75;11.48;;;;;;;;;;5055556;28;20120;-70
2023/04/16 20:44:31;;;;;;;17.05;11.85;;;;;;;;;;5044573;28;20641;-69
2023/04/16 20:46:57;;;;;;;16.30;11.48;;;;;;;;;;5052811;28;20669;-68
2023/04/16 20:49:23;;;;;;;17.83;11.05;;;;;;;;;;5050319;28;20013;-68
2023/04/16 20:51:49;;;;;;;14.63;9.60;;;;;;;;;;5059271;28;20463;-67
2023/04/16 20:54:15;;;;;;;15.18;10.60;;;;;;;;;;5050424;28;20029;-68
2023/04/16 20:56:42;;;;;;;15.43;10.63;;;;;;;;;;5048785;28;20033;-68
2023/04/16 20:59:07;;;;;;;15.85;10.38;;;;;;;;;;5050551;28;20025;-68
2023/04/16 21:01:34;;;;;;;12.85;9.85;;;;;;;;;;5054602;28;20104;-68
2023/04/16 21:03:59;;;;;;;12.40;8.40;;;;;;;;;;5051712;28;20493;-66
2023/04/16 21:06:24;;;;;;;10.95;7.60;;;;;;;;;;5048221;28;20036;-67
2023/04/16 21:08:50;;;;;;;9.40;5.95;;;;;;;;;;5047639;28;20019;-68
2023/04/16 21:11:15;;;;;;;11.38;7.05;;;;;;;;;;5045505;28;20029;-67
2023/04/16 21:13:41;;;;;;;10.02;6.93;;;;;;;;;;5052247;28;20039;-67
2023/04/16 21:16:08;;;;;;;9.10;6.75;;;;;;;;;;5055420;28;20060;-68
2023/04/16 21:18:35;;;;;;;10.13;7.15;;;;;;;;;;5051790;28;20458;-67
2023/04/16 21:21:01;;;;;;;9.27;5.82;;;;;;;;;;5051113;23;20053;-69
2023/04/16 21:23:26;;;;;;;10.13;7.00;;;;;;;;;;5029671;28;20037;-69
2023/04/16 21:25:54;;;;;;;8.77;6.82;;;;;;;;;;5031755;28;20033;-69
2023/04/16 21:28:20;;;;;;;9.05;6.47;;;;;;;;;;5030436;28;20025;-69
2023/04/16 21:30:45;;;;;;;10.55;6.82;;;;;;;;;;5023523;28;20036;-69
2023/04/16 21:33:11;;;;;;;9.45;7.93;;;;;;;;;;4998615;28;20026;-69
2023/04/16 21:35:37;;;;;;;8.90;6.47;;;;;;;;;;5014797;28;20038;-69
2023/04/16 21:38:02;;;;;;;9.40;6.85;;;;;;;;;;5017872;28;20022;-69
2023/04/16 21:40:27;;;;;;;9.05;6.55;;;;;;;;;;4997355;28;20061;-69
2023/04/16 21:42:54;;;;;;;10.50;7.55;;;;;;;;;;5016199;28;20040;-69
2023/04/16 21:45:19;;;;;;;9.57;6.60;;;;;;;;;;5007055;28;20660;-69
2023/04/16 21:47:44;;;;;;;10.05;6.65;;;;;;;;;;5010710;28;20022;-69
2023/04/16 21:50:10;;;;;;;10.65;6.75;;;;;;;;;;4995611;28;20026;-69
2023/04/16 21:52:39;;;;;;;9.90;6.45;;;;;;;;;;5003957;28;20029;-69
2023/04/16 21:55:07;;;;;;;10.95;7.18;;;;;;;;;;5008457;28;20018;-67
2023/04/16 21:57:32;;;;;;;10.20;7.32;;;;;;;;;;5010862;28;20041;-69
2023/04/16 21:59:58;;;;;;;7.93;5.85;;;;;;;;;;5010259;28;20033;-67
2023/04/16 22:02:23;;;;;;;8.10;6.32;;;;;;;;;;5007091;28;20025;-69
2023/04/16 22:04:49;;;;;;;11.50;6.63;;;;;;;;;;5000625;28;20030;-69
2023/04/16 22:07:15;;;;;;;11.38;6.90;;;;;;;;;;5006218;28;20032;-69
2023/04/16 22:09:41;;;;;;;8.80;6.10;;;;;;;;;;5011723;28;20034;-69
2023/04/16 22:12:09;;;;;;;11.48;6.70;;;;;;;;;;5006739;28;20088;-68
2023/04/16 22:14:35;;;;;;;9.07;6.75;;;;;;;;;;5007606;28;20029;-68
2023/04/16 22:17:00;;;;;;;10.20;7.30;;;;;;;;;;5004981;28;20050;-68
2023/04/16 22:19:27;;;;;;;9.93;6.80;;;;;;;;;;5011071;28;20486;-68
2023/04/16 22:21:52;;;;;;;11.32;7.40;;;;;;;;;;5009219;28;20564;-68
2023/04/16 22:24:17;;;;;;;9.90;7.57;;;;;;;;;;5015880;28;20038;-68
2023/04/16 22:26:43;;;;;;;10.15;6.75;;;;;;;;;;5008523;28;20359;-68
2023/04/16 22:29:08;;;;;;;10.05;7.05;;;;;;;;;;5007264;28;20025;-68
2023/04/16 22:31:34;;;;;;;9.57;7.07;;;;;;;;;;5013511;28;20022;-68
2023/04/16 22:33:59;;;;;;;10.52;8.02;;;;;;;;;;5007820;28;20028;-68
2023/04/16 22:36:25;;;;;;;9.00;6.40;;;;;;;;;;5001327;28;20164;-68
2023/04/16 22:38:51;;;;;;;10.82;7.38;;;;;;;;;;5010003;28;20029;-68
2023/04/16 22:41:16;;;;;;;10.00;7.07;;;;;;;;;;5008520;28;20750;-68
2023/04/16 22:43:42;;;;;;;9.27;6.30;;;;;;;;;;5008797;28;20132;-68
2023/04/16 22:46:08;;;;;;;8.18;5.53;;;;;;;;;;5007677;28;20026;-68
2023/04/16 22:48:35;;;;;;;8.05;5.47;;;;;;;;;;4996670;28;20061;-68
2023/04/16 22:51:01;;;;;;;9.30;6.55;;;;;;;;;;5006136;28;20052;-68
2023/04/16 22:53:27;;;;;;;9.20;6.45;;;;;;;;;;5015901;28;20092;-68
2023/04/16 22:55:52;;;;;;;9.95;6.00;;;;;;;;;;5001868;28;20571;-68
2023/04/16 22:58:18;;;;;;;9.10;6.05;;;;;;;;;;4997569;28;20037;-68
2023/04/16 23:00:43;;;;;;;7.97;5.85;;;;;;;;;;5004467;28;20622;-67
2023/04/16 23:03:09;;;;;;;10.88;6.32;;;;;;;;;;5004645;28;20490;-68
2023/04/16 23:05:34;;;;;;;8.38;6.05;;;;;;;;;;5002912;28;20101;-68
2023/04/16 23:08:00;;;;;;;9.02;5.90;;;;;;;;;;5007370;28;20021;-67
2023/04/16 23:10:26;;;;;;;9.80;5.95;;;;;;;;;;4997090;28;20109;-68
2023/04/16 23:12:51;;;;;;;8.35;6.10;;;;;;;;;;5005015;28;20150;-67
2023/04/16 23:15:17;;;;;;;9.98;6.85;;;;;;;;;;5013798;28;20052;-67
2023/04/16 23:17:42;;;;;;;9.68;6.40;;;;;;;;;;4999153;28;20058;-68
2023/04/16 23:20:08;;;;;;;9.32;6.75;;;;;;;;;;5002290;28;20041;-67
2023/04/16 23:22:34;;;;;;;9.77;6.80;;;;;;;;;;5007793;28;20109;-68
2023/04/16 23:25:00;;;;;;;9.02;6.22;;;;;;;;;;5011438;28;20495;-68
2023/04/16 23:27:25;;;;;;;10.52;6.75;;;;;;;;;;5013971;28;20026;-68
2023/04/16 23:29:51;;;;;;;10.07;7.00;;;;;;;;;;5003201;28;20386;-68
2023/04/16 23:32:16;;;;;;;12.82;7.25;;;;;;;;;;5009434;28;20053;-68
2023/04/16 23:34:42;;;;;;;10.80;6.72;;;;;;;;;;5001956;28;20026;-68
2023/04/16 23:37:07;;;;;;;9.07;6.93;;;;;;;;;;5024771;28;20032;-67
2023/04/16 23:39:32;;;;;;;8.20;6.22;;;;;;;;;;5006381;28;20022;-68
2023/04/16 23:41:58;;;;;;;14.35;8.05;;;;;;;;;;4998369;28;20030;-67
2023/04/16 23:44:23;;;;;;;10.38;7.70;;;;;;;;;;5001525;28;20025;-68
2023/04/16 23:46:49;;;;;;;11.80;7.47;;;;;;;;;;5004246;28;20021;-67
2023/04/16 23:49:14;;;;;;;12.05;8.20;;;;;;;;;;5007323;28;20030;-68
2023/04/16 23:51:40;;;;;;;10.57;7.68;;;;;;;;;;5000326;28;20120;-67
2023/04/16 23:54:05;;;;;;;9.38;7.45;;;;;;;;;;5002955;28;20076;-68
2023/04/16 23:56:31;;;;;;;10.40;8.13;;;;;;;;;;5001383;28;20031;-68
2023/04/16 23:58:56;;;;;;;11.85;7.53;;;;;;;;;;5020173;28;20087;-67
